Flight Track Log - Related Links

Times and Time Zones

All times are in EDT time to prevent confusion due to time zone crossing. See the CTL22 flight status page for this flight to view local times or setup timezone preferences in your user account.

Time Position Orientation Groundspeed Altitude Reporting Facility
EDT Latitude Longitude Course Direction KTS MPH feet Rate Location/Type
Tue 10:26:45 PM 42.6431 -84.5183 290° West 153 176 6,000  Level Cleveland Center
Tue 10:27:40 PM 42.6517 -84.5697 283° West 152 175 6,000  Level Cleveland Center
Tue 10:29:00 PM 42.6668 -84.6316 290° West  Level Estimated
Tue 10:30:00 PM 42.6432 -84.6981 290° West  Level FlightAware Approximate
Tue 10:31:00 PM 42.6557 -84.7439 290° West  Level FlightAware Approximate
Tue 10:32:00 PM 42.6680 -84.7898 290° West  Level FlightAware Approximate
Tue 10:33:39 PM 42.7300 -84.8886 289° West 152 175 6,000  Level Cleveland Center
Tue 10:34:45 PM 42.7442 -84.9544 286° West 152 175 6,000  Level Cleveland Center
Tue 10:35:46 PM 42.7567 -85.0092 287° West 155 178 6,000  Level Cleveland Center
Tue 10:36:00 PM 42.7222 -84.9655 283° West  Level FlightAware Approximate
Tue 10:36:47 PM 42.7711 -85.0639 290° West 153 176 6,000  Level Cleveland Center
Tue 10:37:00 PM 42.7300 -85.0132 283° West  Level FlightAware Approximate
Tue 10:38:00 PM 42.7848 -85.1205 294° West  Level Estimated
Tue 10:38:00 PM 42.7417 -85.0669 289° West  Level FlightAware Approximate
Tue 10:39:18 PM 42.8119 -85.2125 294° West 175 201 4,200  Level Chicago Center
Tue 10:41:00 PM 42.8292 -85.2924 286° West  Level FlightAware Approximate
Tue 10:48:00 PM 42.8667 -85.5167 270° West  Level FlightAware Approximate
Tue 10:49:00 PM 42.8808 -85.5228 270° West  Level Estimated
Tue 10:50:00 PM 42.8808 -85.5228 270° West  Level Estimated
Tue 10:51:00 PM 42.8808 -85.5228 270° West  Level Estimated
Tue 10:52:00 PM 42.8808 -85.5228 270° West  Level Estimated
Tue 10:53:00 PM 42.8808 -85.5228 270° West  Level Estimated

Login

Don't have an account? Register now (free) for customized features, flight alerts, and more!